Tureia Airport

NTGY · French Polynesia

METAR的历史 NTGY · Tureia Airport

下面你可以看到过去几天的METARs。 选择年份以浏览从2007年开始的旧METAR。

2024年7月13日

时间 代码 天气 温度 能见度 天花板 METAR/SPECI
03:30
M
25 °C 10 km+ 1.900 ft 080° 080° 5 kt METAR NTAA 131330Z AUTO 08005KT 040V100 9999 SCT014 BKN019 OVC140 25/22 Q1010 TEMPO 4000 SHRA
03:00
M
25 °C 10 km+ 1.800 ft 070° 070° 6 kt METAR NTAA 131300Z AUTO 07006KT 9999 SCT013 BKN018 BKN066 25/23 Q1010 TEMPO 4000 SHRA
02:30
M
25 °C 10 km+ 1.800 ft 060° 060° 5 kt METAR NTAA 131230Z AUTO 06005KT 9999 FEW013 BKN018 BKN068 25/23 Q1011 TEMPO 4000 SHRA
02:00
V
25 °C 10 km+ 6.600 ft 110° 110° 3 kt METAR NTAA 131200Z AUTO 11003KT 9999 SCT017 BKN066 OVC150 25/23 Q1011 TEMPO 4000 SHRA
01:30
V
25 °C 10 km+ 6.400 ft 170° 170° 5 kt METAR NTAA 131130Z AUTO 17005KT 9999 BKN064 OVC160 25/23 Q1011 TEMPO 4000 SHRA
01:00
V
25 °C 10 km+ 6.200 ft 170° 170° 6 kt METAR NTAA 131100Z AUTO 17006KT 9999 FEW014 OVC062 25/23 Q1011 TEMPO VRB15G25KT 3000 SHRA FEW016CB SCT018 BKN035
00:30
M
25 °C 10 km+ 1.300 ft 360° 360° 0 kt METAR NTAA 131030Z AUTO 00000KT 9999 BKN013 BKN062 BKN160 25/23 Q1011 TEMPO VRB15G25KT 3000 SHRA FEW016CB SCT018 BKN035
00:00
V
25 °C 10 km+ 16.000 ft 050° 050° 5 kt METAR NTAA 131000Z AUTO 05005KT 9999 FEW009/// SCT018/// OVC160/// ///TCU 25/23 Q1012 TEMPO 28010KT 4000 SHRA BECMG FEW020 BKN055

2024年7月12日

时间 代码 天气 温度 能见度 天花板 METAR/SPECI
23:30
V
25 °C 10 km+ 7.000 ft 060° 060° 4 kt METAR NTAA 130930Z AUTO 06004KT 9999 -RA FEW019 SCT041 BKN070 25/23 Q1012 TEMPO 28010KT 4000 SHRA
23:00
V
25 °C 10 km+ 7.000 ft 170° 170° 4 kt METAR NTAA 130900Z AUTO 17004KT 9999 FEW054 BKN070 OVC084 25/23 Q1012 TEMPO 28010KT 4000 SHRA
22:30
V
25 °C 10 km+ 7.000 ft 200° 200° 10 kt METAR NTAA 130830Z AUTO 20010KT 9999 FEW022 OVC070 25/23 Q1012 TEMPO 28010KT 4000 SHRA
22:00
V
26 °C 10 km+ 7.200 ft 200° 200° 9 kt METAR NTAA 130800Z AUTO 20009KT 9999 -RA FEW043 BKN072 OVC084 26/23 Q1012 TEMPO 28010KT 4000 SHRA
21:30
V
26 °C 10 km+ 7.400 ft 060° 060° 3 kt METAR NTAA 130730Z AUTO 06003KT 020V090 9999 FEW060 OVC074 26/23 Q1012 TEMPO 28010KT 4000 SHRA
21:00
V
25 °C 10 km+ 7.600 ft 070° 070° 3 kt METAR NTAA 130700Z AUTO 07003KT 9999 FEW056 OVC076 25/23 Q1012 TEMPO 28010KT 4000 SHRA
20:30
V
26 °C 10 km+ 5.800 ft 060° 060° 3 kt METAR NTAA 130630Z AUTO 06003KT 9999 OVC058 26/23 Q1012 TEMPO 28010KT 4000 SHRA
20:00
V
26 °C 10 km+ 5.400 ft 060° 060° 3 kt METAR NTAA 130600Z AUTO 06003KT 9999 FEW019 BKN054 BKN160 26/23 Q1012 TEMPO 28010KT 4000 SHRA
19:30
V
26 °C 10 km+ 3.200 ft Var Var 2 kt METAR NTAA 130530Z AUTO VRB02KT 9999 FEW018 BKN032 BKN056 26/23 Q1012 TEMPO 4000 SHRA
19:00
V
26 °C 10 km+ 4.300 ft 090° 090° 3 kt METAR NTAA 130500Z AUTO 09003KT 9999 SCT033 BKN043 BKN050 26/23 Q1012 NOSIG
18:30
V
26 °C 10 km+ 5.600 ft 310° 310° 5 kt METAR NTAA 130430Z AUTO 31005KT 9999 -RA FEW031 SCT046 BKN056 26/23 Q1011 NOSIG
18:00
V
27 °C 10 km+ 5.600 ft 280° 280° 7 kt METAR NTAA 130400Z AUTO 28007KT 9999 FEW029 BKN056 OVC066 27/23 Q1011 NOSIG
17:30
M
27 °C 10 km+ 2.800 ft 270° 270° 8 kt METAR NTAA 130330Z AUTO 27008KT 9999 BKN028 OVC066 27/23 Q1011 NOSIG
17:00
V
27 °C 10 km+ - 300° 300° 8 kt METAR NTAA 130300Z AUTO 30008KT 9999 FEW028 SCT066 27/22 Q1010 NOSIG
16:30
V
27 °C 10 km+ - 320° 320° 6 kt METAR NTAA 130230Z AUTO 32006KT 9999 FEW066 27/22 Q1010 NOSIG
16:00
V
28 °C 10 km+ 7.000 ft 340° 340° 5 kt METAR NTAA 130200Z AUTO 34005KT 9999 BKN070 28/22 Q1010 NOSIG
15:30
V
28 °C 10 km+ 7.000 ft 330° 330° 6 kt METAR NTAA 130130Z AUTO 33006KT 9999 OVC070 28/23 Q1010 NOSIG
15:00
V
28 °C 10 km+ 7.000 ft 300° 300° 3 kt METAR NTAA 130100Z AUTO 30003KT 9999 FEW042/// OVC070/// ///TCU 28/22 Q1010 BECMG FEW020 SCT040 BKN100
14:30
V
28 °C 10 km+ 4.100 ft 250° 250° 3 kt METAR NTAA 130030Z AUTO 25003KT 9999 BKN041/// BKN072/// ///TCU 28/22 Q1010 BECMG FEW020 SCT040 BKN100
14:00
V
28 °C 10 km+ 4.200 ft 300° 300° 4 kt METAR NTAA 130000Z AUTO 30004KT 9999 BKN042 BKN072 28/22 Q1010 NOSIG
13:30
V
28 °C 10 km+ 7.200 ft 280° 280° 2 kt METAR NTAA 122330Z AUTO 28002KT 9999 FEW027 SCT043 BKN072 28/22 Q1011 NOSIG
13:00
M
28 °C 10 km+ 2.900 ft 220° 220° 6 kt METAR NTAA 122300Z AUTO 22006KT 9999 SCT023 BKN029 BKN045 28/22 Q1011 NOSIG
12:30
M
28 °C 10 km+ 2.900 ft 220° 220° 8 kt METAR NTAA 122230Z AUTO 22008KT 9999 SCT022 OVC029 28/22 Q1011 NOSIG
12:00
M
28 °C 10 km+ 2.400 ft 230° 230° 7 kt METAR NTAA 122200Z AUTO 23007KT 9999 BKN024 28/23 Q1012 NOSIG
11:30
V
28 °C 10 km+ - 270° 270° 4 kt METAR NTAA 122130Z AUTO 27004KT 240V300 9999 FEW024 28/23 Q1012 NOSIG
11:00
M
28 °C 10 km+ 2.700 ft 250° 250° 5 kt METAR NTAA 122100Z AUTO 25005KT 9999 BKN027 28/23 Q1012 NOSIG
10:30
V
28 °C 10 km+ - 280° 280° 5 kt METAR NTAA 122030Z AUTO 28005KT 9999 FEW030 28/23 Q1012 NOSIG
10:00
V
28 °C 10 km+ 3.100 ft 300° 300° 4 kt METAR NTAA 122000Z AUTO 30004KT 260V320 9999 SCT023 BKN031 28/23 Q1013 NOSIG
09:30
M
28 °C 10 km+ 2.800 ft 330° 330° 5 kt METAR NTAA 121930Z AUTO 33005KT 9999 FEW017 BKN028 28/23 Q1013 NOSIG
09:00
M
27 °C 10 km+ 2.600 ft Var Var 2 kt METAR NTAA 121900Z AUTO VRB02KT 9999 FEW017 BKN026 27/23 Q1013 NOSIG
08:30
V
26 °C 10 km+ - 230° 230° 3 kt METAR NTAA 121830Z AUTO 23003KT 180V270 9999 FEW017 26/22 Q1013 NOSIG
08:00
V
26 °C 10 km+ - Var Var 1 kt METAR NTAA 121800Z AUTO VRB01KT CAVOK 26/22 Q1012 NOSIG
07:30
V
25 °C 10 km+ - Var Var 2 kt METAR NTAA 121730Z AUTO VRB02KT 9999 // NSC 25/23 Q1012
07:00
V
24 °C 10 km+ 22.000 ft 090° 090° 3 kt METAR NTAA 121700Z AUTO 09003KT 9999 FEW030 BKN220 24/22 Q1012 NOSIG
06:30
M
24 °C 10 km+ 3.000 ft 080° 080° 3 kt METAR NTAA 121630Z AUTO 08003KT 9999 BKN030/// BKN100/// OVC220/// 24/23 Q1011 NOSIG
06:00
M
25 °C 10 km+ 3.000 ft 060° 060° 4 kt METAR NTAA 121600Z AUTO 06004KT 9999 OVC030 25/23 Q1011 NOSIG
05:30
M
24 °C 10 km+ 2.900 ft Var Var 2 kt METAR NTAA 121530Z AUTO VRB02KT 9999 OVC029 24/23 Q1011 NOSIG
05:00
M
25 °C 10 km+ 2.700 ft 070° 070° 3 kt METAR NTAA 121500Z AUTO 07003KT 9999 OVC027 25/23 Q1011 NOSIG
04:30
M
25 °C 10 km+ 2.800 ft 070° 070° 4 kt METAR NTAA 121430Z AUTO 07004KT 9999 FEW017 BKN028 BKN072 25/23 Q1010 NOSIG
04:00
M
25 °C 10 km+ 2.500 ft Var Var 3 kt METAR NTAA 121400Z AUTO VRB03KT 9999 FEW017 BKN025 BKN030 25/23 Q1010 NOSIG
03:30
M
25 °C 10 km+ 2.400 ft Var Var 2 kt METAR NTAA 121330Z AUTO VRB02KT 9999 FEW015 BKN024 BKN030 25/22 Q1010 NOSIG
03:00
M
24 °C 10 km+ 3.000 ft Var Var 2 kt METAR NTAA 121300Z AUTO VRB02KT 9999 FEW024 BKN030 BKN084 24/23 Q1010 NOSIG
02:30
M
24 °C 10 km+ 2.100 ft 090° 090° 4 kt METAR NTAA 121230Z AUTO 09004KT 9999 BKN021 BKN028 OVC250 24/22 Q1010 NOSIG
02:00
M
24 °C 10 km+ 2.900 ft 060° 060° 4 kt METAR NTAA 121200Z AUTO 06004KT 9999 FEW022 BKN029 BKN074 24/23 Q1010 NOSIG
01:30
M
24 °C 10 km+ 2.900 ft 100° 100° 3 kt METAR NTAA 121130Z AUTO 10003KT 9999 FEW020/// BKN029/// OVC080/// ///TCU 24/23 Q1010 BECMG FEW023 BKN050 OVC090
01:00
M
25 °C 10 km+ 2.700 ft Var Var 2 kt METAR NTAA 121100Z AUTO VRB02KT 9999 SCT021 OVC027 25/23 Q1011 NOSIG
00:30
M
24 °C 10 km+ 2.000 ft Var Var 2 kt METAR NTAA 121030Z AUTO VRB02KT 9999 OVC020 24/23 Q1011 NOSIG
00:00
M
24 °C 10 km+ 1.600 ft 150° 150° 3 kt METAR NTAA 121000Z AUTO 15003KT 9999 BKN016 OVC088 24/22 Q1011 NOSIG

2024年7月11日

时间 代码 天气 温度 能见度 天花板 METAR/SPECI
23:30
V
24 °C 10 km+ 9.000 ft 160° 160° 5 kt METAR NTAA 120930Z AUTO 16005KT 9999 FEW014 BKN090 BKN160 24/22 Q1011 NOSIG
23:00
V
24 °C 10 km+ 10.000 ft 170° 170° 4 kt METAR NTAA 120900Z AUTO 17004KT 9999 FEW078 BKN100 BKN160 24/23 Q1011 TEMPO 4000 SHRA
22:30
V
24 °C 10 km+ 8.400 ft 150° 150° 4 kt METAR NTAA 120830Z AUTO 15004KT 9999 OVC084 24/22 Q1011 TEMPO 4000 SHRA
22:00
V
24 °C 10 km+ 9.400 ft 180° 180° 3 kt METAR NTAA 120800Z AUTO 18003KT 9999 FEW074 BKN094 BKN110 24/23 Q1012 TEMPO 4000 SHRA
21:30
V
25 °C 10 km+ 7.800 ft 200° 200° 4 kt METAR NTAA 120730Z AUTO 20004KT 9999 FEW032 BKN078 BKN096 25/23 Q1012 TEMPO 4000 SHRA
21:00
V
25 °C 10 km+ 7.400 ft Var Var 2 kt METAR NTAA 120700Z AUTO VRB02KT 9999 -RA FEW040 SCT060 BKN074 25/23 Q1011 TEMPO 4000 SHRA
20:30
M
25 °C 5 km 2.500 ft 150° 150° 2 kt METAR NTAA 120630Z AUTO 15002KT 5000 RA BR BKN025 BKN038 BKN048 25/23 Q1011 NOSIG
20:00
V
25 °C 10 km+ 7.400 ft 360° 360° 0 kt METAR NTAA 120600Z AUTO 00000KT 9999 FEW024 OVC074 25/23 Q1011 TEMPO 4000 SHRA
19:30
V
26 °C 10 km+ 8.400 ft Var Var 3 kt METAR NTAA 120530Z AUTO VRB03KT 9999 FEW013 OVC084 26/23 Q1011 NOSIG
19:00
V
26 °C 10 km+ 9.000 ft Var Var 3 kt METAR NTAA 120500Z AUTO VRB03KT 9999 FEW019 OVC090 26/23 Q1011 NOSIG
18:30
V
26 °C 10 km+ 9.200 ft Var Var 2 kt METAR NTAA 120430Z AUTO VRB02KT 9999 -RA SCT078 OVC092 26/22 Q1010 NOSIG
18:00
V
26 °C 10 km+ 8.200 ft Var Var 2 kt METAR NTAA 120400Z AUTO VRB02KT 9999 BKN082 BKN110 OVC140 26/22 Q1010 NOSIG
17:30
V
26 °C 10 km+ 10.000 ft 190° 190° 3 kt METAR NTAA 120330Z AUTO 19003KT 150V240 9999 SCT080 BKN100 BKN120 26/22 Q1010 NOSIG
17:00
V
26 °C 10 km+ 7.000 ft 190° 190° 9 kt METAR NTAA 120300Z AUTO 19009KT 9999 FEW024/// BKN070/// OVC098/// ///TCU 26/22 Q1009 BECMG FEW023 BKN050 OVC100
16:30
V
27 °C 10 km+ 6.800 ft 200° 200° 4 kt METAR NTAA 120230Z AUTO 20004KT 9999 FEW023 BKN068 BKN096 27/23 Q1009 NOSIG
16:00
V
27 °C 10 km+ 6.800 ft 200° 200° 8 kt METAR NTAA 120200Z AUTO 20008KT 9999 FEW025 OVC068 27/23 Q1009 TEMPO 3000 SHRA
15:30
V
26 °C 10 km+ 6.800 ft 200° 200° 11 kt METAR NTAA 120130Z AUTO 20011KT 9999 FEW025 BKN068 BKN078 26/23 Q1009 TEMPO 3000 SHRA
15:00
V
26 °C 10 km+ 7.000 ft 210° 210° 8 kt METAR NTAA 120100Z AUTO 21008KT 9999 BKN070 OVC090 26/23 Q1009 TEMPO 3000 SHRA
14:30
V
26 °C 10 km+ 6.200 ft 200° 200° 8 kt METAR NTAA 120030Z AUTO 20008KT 9999 OVC062 26/23 Q1009 TEMPO 3000 SHRA
14:00
V
26 °C 10 km+ 6.000 ft 200° 200° 9 kt METAR NTAA 120000Z AUTO 20009KT 9999 FEW015 BKN060 BKN092 26/23 Q1009 TEMPO 3000 SHRA
13:30
V
26 °C 10 km+ 4.700 ft 240° 240° 3 kt METAR NTAA 112330Z AUTO 24003KT 9999 -RA FEW024 SCT033 BKN047 26/23 Q1009 TEMPO 3000 SHRA
13:00
V
27 °C 10 km+ 5.800 ft 210° 210° 7 kt METAR NTAA 112300Z AUTO 21007KT 9999 FEW032 OVC058 27/22 Q1010 TEMPO 3000 SHRA
12:30
V
27 °C 10 km+ 5.600 ft 210° 210° 6 kt METAR NTAA 112230Z AUTO 21006KT 9999 FEW048 BKN056 BKN066 27/23 Q1010 TEMPO 3000 SHRA
12:00
V
27 °C 10 km+ 5.800 ft 220° 220° 6 kt METAR NTAA 112200Z AUTO 22006KT 9999 FEW044 BKN058 OVC076 27/23 Q1010 TEMPO 3000 SHRA
11:30
V
27 °C 10 km+ 6.400 ft 230° 230° 6 kt METAR NTAA 112130Z AUTO 23006KT 9999 FEW035 BKN064 BKN110 27/22 Q1011 TEMPO 3000 SHRA
11:00
V
27 °C 10 km+ 10.000 ft 210° 210° 6 kt METAR NTAA 112100Z AUTO 21006KT 9999 SCT041 SCT056 BKN100 27/23 Q1011 TEMPO 3000 SHRA
10:30
V
27 °C 10 km+ 4.000 ft 230° 230° 5 kt METAR NTAA 112030Z AUTO 23005KT 200V260 9999 BKN040 BKN094 BKN110 27/23 Q1011 TEMPO 3000 SHRA
10:00
V
27 °C 10 km+ - 220° 220° 4 kt METAR NTAA 112000Z AUTO 22004KT CAVOK 27/22 Q1011 TEMPO 3000 SHRA
09:30
V
27 °C 10 km+ 9.400 ft 200° 200° 5 kt METAR NTAA 111930Z AUTO 20005KT 9999 FEW041 BKN094 BKN190 27/23 Q1011 TEMPO 3000 SHRA
09:00
V
27 °C 10 km+ 9.200 ft 200° 200° 5 kt METAR NTAA 111900Z AUTO 20005KT 160V220 9999 FEW054 BKN092 BKN190 27/22 Q1011 NOSIG
08:30
V
26 °C 10 km+ 8.800 ft 190° 190° 5 kt METAR NTAA 111830Z AUTO 19005KT 9999 SCT054 BKN088 26/22 Q1011 NOSIG
08:00
V
26 °C 10 km+ 5.600 ft Var Var 2 kt METAR NTAA 111800Z AUTO VRB02KT 9999 FEW043 BKN056 BKN088 26/22 Q1010 NOSIG
07:30
V
25 °C 10 km+ 4.900 ft Var Var 2 kt METAR NTAA 111730Z AUTO VRB02KT 9999 OVC049 25/21 Q1010 NOSIG
07:00
V
25 °C 10 km+ 5.400 ft 090° 090° 3 kt METAR NTAA 111700Z AUTO 09003KT 9999 OVC054 25/21 Q1010 NOSIG
06:30
V
24 °C 10 km+ 5.600 ft 100° 100° 3 kt METAR NTAA 111630Z AUTO 10003KT 9999 OVC056 24/21 Q1010 NOSIG
06:00
V
24 °C 10 km+ 5.600 ft 100° 100° 3 kt METAR NTAA 111600Z AUTO 10003KT 9999 FEW033 BKN056 OVC088 24/22 Q1009 NOSIG
05:30
V
24 °C 10 km+ 8.800 ft 080° 080° 3 kt METAR NTAA 111530Z AUTO 08003KT 9999 FEW038 SCT060 BKN088 24/22 Q1009 NOSIG
05:00
V
24 °C 10 km+ 6.200 ft 100° 100° 2 kt METAR NTAA 111500Z AUTO 10002KT 9999 FEW029 BKN062 BKN096 24/22 Q1009 NOSIG
04:30
V
24 °C 10 km+ 6.600 ft 090° 090° 3 kt METAR NTAA 111430Z AUTO 09003KT 9999 FEW030 SCT040 BKN066 24/22 Q1008 NOSIG
04:00
V
24 °C 10 km+ 5.200 ft 040° 040° 1 kt METAR NTAA 111400Z AUTO 04001KT 9999 FEW041 OVC052 24/22 Q1008 NOSIG
03:30
V
24 °C 10 km+ 5.200 ft 100° 100° 3 kt METAR NTAA 111330Z AUTO 10003KT 9999 FEW033 SCT040 OVC052 24/22 Q1008 NOSIG
03:00
V
24 °C 10 km+ 6.000 ft Var Var 2 kt METAR NTAA 111300Z AUTO VRB02KT 9999 FEW034 SCT047 BKN060 24/22 Q1009 NOSIG
02:30
V
24 °C 10 km+ 8.200 ft 190° 190° 1 kt METAR NTAA 111230Z AUTO 19001KT 9999 FEW072 BKN082 OVC200 24/22 Q1009 NOSIG
02:00
V
24 °C 10 km+ 5.200 ft 080° 080° 3 kt METAR NTAA 111200Z AUTO 08003KT 9999 SCT045 BKN052 OVC082 24/22 Q1009 NOSIG
01:30
V
24 °C 10 km+ 4.500 ft Var Var 3 kt METAR NTAA 111130Z AUTO VRB03KT 9999 BKN045 BKN052 BKN066 24/21 Q1009 NOSIG
01:00
V
24 °C 10 km+ 6.400 ft 190° 190° 7 kt METAR NTAA 111100Z AUTO 19007KT 9999 FEW026 SCT050 BKN064 24/22 Q1009 NOSIG
00:30
V
24 °C 10 km+ 9.600 ft 180° 180° 6 kt METAR NTAA 111030Z AUTO 18006KT 9999 FEW026 SCT074 BKN096 24/22 Q1009 NOSIG

2024年7月10日

时间 代码 天气 温度 能见度 天花板 METAR/SPECI
23:30
M
24 °C 6 km 3.300 ft 180° 180° 8 kt METAR NTAA 110930Z AUTO 18008KT 6000 -RA FEW010 BKN033 BKN044 24/22 Q1010 NOSIG
23:00
M
24 °C 5 km 7.000 ft 180° 180° 11 kt METAR NTAA 110900Z AUTO 18011KT 5000 -RA BR FEW012 SCT054 BKN070 24/23 Q1010 NOSIG
22:30
V
25 °C 10 km+ 7.000 ft 190° 190° 9 kt METAR NTAA 110830Z AUTO 19009KT 9999 FEW008 SCT025 BKN070 25/22 Q1010 NOSIG
22:00
V
25 °C 10 km+ 7.200 ft 190° 190° 8 kt METAR NTAA 110800Z AUTO 19008KT 9999 FEW022 SCT027 OVC072 25/23 Q1010 TEMPO 3000 SHRA
21:30
V
26 °C 10 km+ 7.000 ft Var Var 2 kt METAR NTAA 110730Z AUTO VRB02KT 9999 OVC070 26/20 Q1010 TEMPO 3000 SHRA
21:00
V
26 °C 10 km+ 6.800 ft 060° 060° 4 kt METAR NTAA 110700Z AUTO 06004KT 9999 FEW027 BKN068 26/20 Q1010 TEMPO 22010KT 3000 SHRA
20:30
V
26 °C 10 km+ - 070° 070° 4 kt METAR NTAA 110630Z AUTO 07004KT 9999 FEW024 26/20 Q1010 TEMPO 22010KT 3000 SHRA
20:00
V
26 °C 10 km+ - 060° 060° 3 kt METAR NTAA 110600Z AUTO 06003KT CAVOK 26/20 Q1010 TEMPO 22010KT 3000 SHRA
报告变更